Time;durP1;ratioP1;P1;durP2;ratioP2;P2;SDS_P1;SDS_P2;PMS_P1;PMS_P2;Temp;Humidity;BMP_temperature;BMP_pressure;BME280_temperature;BME280_humidity;BME280_pressure;Samples;Min_cycle;Max_cycle;Signal;HPM_P1;HPM_P2
2022/11/17 00:00:16;;;;;;;8.93;2.90;;;;;;;17.55;60.02;98660.00;5048947;28;20413;-69
2022/11/17 00:02:42;;;;;;;6.03;2.37;;;;;;;17.35;60.58;98646.47;5050680;28;20021;-70
2022/11/17 00:05:08;;;;;;;7.83;2.60;;;;;;;18.47;57.39;98634.56;5050065;28;20071;-69
2022/11/17 00:07:33;;;;;;;9.60;2.70;;;;;;;17.69;59.43;98635.19;5053689;28;20029;-69
2022/11/17 00:09:59;;;;;;;11.73;2.70;;;;;;;17.32;61.06;98624.69;5051326;28;20356;-69
2022/11/17 00:15:08;;;;;;;8.57;2.80;;;;;;;17.97;59.50;98599.66;5047268;28;20124;-69
2022/11/17 00:17:33;;;;;;;5.27;2.80;;;;;;;17.99;59.92;98587.16;5051832;28;20456;-70
2022/11/17 00:22:43;;;;;;;7.40;2.97;;;;;;;17.82;60.41;98559.34;5051629;28;20134;-69
2022/11/17 00:25:08;;;;;;;11.57;3.70;;;;;;;17.77;60.90;98546.47;5047112;28;20030;-69
2022/11/17 00:27:34;;;;;;;4.77;3.10;;;;;;;17.53;62.11;98553.59;5049122;28;20462;-69
2022/11/17 00:29:59;;;;;;;7.20;3.60;;;;;;;18.09;59.38;98560.84;5067631;28;20107;-69
2022/11/17 00:35:08;;;;;;;9.20;3.73;;;;;;;16.79;64.92;98587.06;5048364;28;20158;-70
2022/11/17 00:38:21;;;;;;;8.13;4.03;;;;;;;16.78;66.85;98574.81;5048909;28;20043;-70
2022/11/17 00:40:28;;;;;;;10.57;3.93;;;;;;;17.25;62.36;98561.78;5038397;28;20056;-69
2022/11/17 00:42:53;;;;;;;12.73;4.27;;;;;;;17.03;61.77;98557.22;5051027;28;20132;-69
2022/11/17 00:45:19;;;;;;;6.07;4.00;;;;;;;16.81;68.39;98542.09;5042876;28;20079;-69
2022/11/17 00:47:44;;;;;;;9.73;4.43;;;;;;;17.69;62.47;98538.28;5052158;28;20017;-69
2022/11/17 00:50:09;;;;;;;9.83;3.67;;;;;;;17.10;65.90;98532.09;5051873;28;20135;-70
2022/11/17 00:52:35;;;;;;;7.67;3.83;;;;;;;16.91;67.18;98529.09;5051025;28;20017;-69
2022/11/17 00:55:00;;;;;;;7.37;3.03;;;;;;;17.03;68.38;98530.00;5047700;28;20316;-69
2022/11/17 00:57:26;;;;;;;5.23;3.30;;;;;;;16.67;68.12;98524.63;5052695;28;20078;-69
2022/11/17 00:59:51;;;;;;;8.60;4.30;;;;;;;16.95;68.28;98512.97;5051653;28;20391;-69
2022/11/17 01:02:17;;;;;;;10.80;4.00;;;;;;;17.48;65.07;98524.09;5050686;28;20071;-69
2022/11/17 01:04:43;;;;;;;9.17;3.93;;;;;;;16.88;70.04;98531.94;5049935;28;20102;-69
2022/11/17 01:07:08;;;;;;;3.90;3.03;;;;;;;16.48;69.37;98535.63;5080988;28;20024;-69
2022/11/17 01:09:34;;;;;;;6.20;4.17;;;;;;;17.77;63.90;98529.78;5081450;28;20051;-69
2022/11/17 01:11:59;;;;;;;7.67;4.17;;;;;;;17.78;63.94;98532.31;5051906;28;20397;-69
2022/11/17 01:14:27;;;;;;;6.27;4.83;;;;;;;17.83;62.89;98518.72;5047470;28;20466;-69
2022/11/17 01:16:53;;;;;;;5.97;4.50;;;;;;;17.46;62.97;98514.47;5057415;28;20487;-69
2022/11/17 01:19:19;;;;;;;7.33;4.03;;;;;;;16.94;69.71;98510.44;5049634;28;20417;-69
2022/11/17 01:21:45;;;;;;;8.63;4.10;;;;;;;16.95;70.17;98520.00;5047287;28;20029;-69
2022/11/17 01:24:12;;;;;;;6.13;3.80;;;;;;;17.94;65.24;98510.00;5044958;28;20028;-69
2022/11/17 01:26:38;;;;;;;7.73;4.30;;;;;;;18.14;62.75;98501.38;5055119;28;20035;-68
2022/11/17 01:29:05;;;;;;;5.23;3.87;;;;;;;18.00;63.96;98509.56;5077469;28;20135;-69
2022/11/17 01:31:33;;;;;;;6.93;3.80;;;;;;;18.47;61.27;98507.59;5046004;28;20040;-69
2022/11/17 01:33:59;;;;;;;5.67;4.00;;;;;;;18.09;62.96;98506.19;5046082;28;20021;-69
2022/11/17 01:37:17;;;;;;;7.60;3.10;;;;;;;17.73;63.90;98508.03;5044479;28;20035;-69
2022/11/17 01:39:21;;;;;;;4.67;3.20;;;;;;;18.64;59.35;98497.47;5043750;28;20033;-69
2022/11/17 01:41:47;;;;;;;7.33;3.53;;;;;;;18.17;61.43;98499.47;5051515;28;20029;-69
2022/11/17 01:44:40;;;;;;;4.73;3.20;;;;;;;17.96;63.80;98498.38;5046008;28;20490;-69
2022/11/17 01:47:15;;;;;;;;;;;;;;;18.48;59.65;98504.00;5052491;28;20024;-69
2022/11/17 01:49:41;;;;;;;5.10;2.73;;;;;;;18.10;64.72;98494.63;5075302;28;19951;-69
2022/11/17 01:52:09;;;;;;;4.97;2.63;;;;;;;18.23;63.35;98489.25;5042024;28;20061;-68
2022/11/17 01:54:39;;;;;;;3.70;2.60;;;;;;;17.85;63.40;98484.28;5076251;28;20078;-68
2022/11/17 01:57:19;;;;;;;4.93;2.83;;;;;;;18.79;58.98;98490.97;5044366;28;20029;-69
2022/11/17 01:59:56;;;;;;;5.63;2.50;;;;;;;19.58;55.89;98467.75;5043682;28;20073;-69
2022/11/17 02:02:22;;;;;;;4.30;3.33;;;;;;;18.45;59.29;98466.38;5044459;28;20035;-69
2022/11/17 02:05:02;;;;;;;8.90;2.80;;;;;;;18.56;59.11;98465.50;5045116;28;20440;-69
2022/11/17 02:07:32;;;;;;;6.97;2.77;;;;;;;18.57;59.99;98469.84;5056709;28;20033;-68
2022/11/17 02:10:00;;;;;;;7.00;2.80;;;;;;;19.32;56.67;98452.25;5041561;28;20048;-69
2022/11/17 02:12:27;;;;;;;6.23;2.93;;;;;;;19.54;55.90;98437.19;5074722;28;20029;-69
2022/11/17 02:14:53;;;;;;;6.50;3.03;;;;;;;19.10;56.40;98456.69;5043557;28;20064;-68
2022/11/17 02:17:21;;;;;;;5.50;2.90;;;;;;;19.02;56.72;98448.53;5045059;28;20025;-69
2022/11/17 02:20:05;;;;;;;9.67;3.23;;;;;;;19.66;54.59;98441.47;5044321;28;20044;-69
2022/11/17 02:22:52;;;;;;;6.77;2.83;;;;;;;18.88;57.29;98446.22;5043318;28;20036;-69
2022/11/17 02:25:32;;;;;;;6.30;2.73;;;;;;;19.10;57.79;98446.09;5058887;28;20066;-70
2022/11/17 02:28:22;;;;;;;4.63;2.80;;;;;;;19.60;55.00;98441.97;5059926;28;20035;-69
2022/11/17 02:31:00;;;;;;;4.90;2.53;;;;;;;19.20;56.30;98445.34;5049858;28;20037;-68
2022/11/17 02:33:43;;;;;;;5.27;2.80;;;;;;;19.05;56.81;98436.88;5041049;28;20120;-69
2022/11/17 02:36:16;;;;;;;4.80;2.47;;;;;;;18.80;56.73;98434.41;5045287;28;20032;-69
2022/11/17 02:39:08;;;;;;;4.03;2.30;;;;;;;19.27;56.74;98435.91;5043796;28;20060;-69
2022/11/17 02:41:38;;;;;;;5.97;2.17;;;;;;;19.38;55.50;98421.75;5024654;28;20059;-69
2022/11/17 02:44:24;;;;;;;5.20;2.53;;;;;;;18.92;55.69;98431.75;5055009;28;20128;-68
2022/11/17 02:47:01;;;;;;;7.53;2.47;;;;;;;19.31;54.38;98416.13;5042974;28;20035;-69
2022/11/17 02:49:34;;;;;;;4.80;2.20;;;;;;;19.18;54.79;98412.84;5043685;28;20037;-69
2022/11/17 02:52:01;;;;;;;;;;;;;;;19.29;53.75;98416.28;5043782;28;20025;-68
2022/11/17 02:54:29;;;;;;;3.37;1.93;;;;;;;19.15;54.55;98411.28;5076095;28;19955;-69
2022/11/17 02:56:54;;;;;;;4.73;1.90;;;;;;;18.30;58.38;98405.00;5045782;28;20041;-68
2022/11/17 02:59:26;;;;;;;3.80;1.87;;;;;;;19.63;54.42;98400.16;5076468;28;20517;-68
2022/11/17 03:02:50;;;;;;;4.03;2.00;;;;;;;19.07;54.92;98398.72;5043368;28;20021;-69
2022/11/17 03:05:26;;;;;;;12.57;3.57;;;;;;;20.02;52.45;98394.19;5035189;28;20040;-68
2022/11/17 03:08:10;;;;;;;8.00;1.90;;;;;;;18.95;55.53;98394.44;5032671;28;20040;-68
2022/11/17 03:10:59;;;;;;;6.47;1.50;;;;;;;19.85;52.83;98389.53;5052927;28;20111;-69
2022/11/17 03:13:51;;;;;;;4.10;1.80;;;;;;;19.34;54.09;98376.16;5042070;28;20119;-69
2022/11/17 03:16:26;;;;;;;3.73;1.80;;;;;;;19.09;55.23;98365.00;5052111;28;20140;-69
2022/11/17 03:19:05;;;;;;;5.43;1.83;;;;;;;19.59;52.86;98368.75;5046200;28;20025;-69
2022/11/17 03:22:00;;;;;;;6.93;1.70;;;;;;;18.92;57.70;98368.25;5042644;28;20032;-68
2022/11/17 03:24:33;;;;;;;5.60;1.50;;;;;;;19.24;53.72;98367.31;5043850;28;20401;-69
2022/11/17 03:27:03;;;;;;;4.28;1.23;;;;;;;19.49;53.90;98356.31;5039159;28;20395;-69
2022/11/17 03:29:31;;;;;;;10.00;1.70;;;;;;;19.23;54.07;98353.22;5043621;28;20044;-68
2022/11/17 03:32:01;;;;;;;3.70;1.27;;;;;;;18.60;57.07;98347.91;5043679;28;20024;-68
2022/11/17 03:34:31;;;;;;;7.93;1.50;;;;;;;19.44;53.77;98342.63;5044138;28;20610;-68
2022/11/17 03:37:01;;;;;;;3.43;1.80;;;;;;;19.27;54.25;98340.56;5040346;28;20104;-69
2022/11/17 03:39:35;;;;;;;4.20;1.53;;;;;;;19.92;52.63;98327.03;5041398;28;20390;-69
2022/11/17 03:42:12;;;;;;;3.80;1.23;;;;;;;19.18;54.66;98320.16;5037630;28;20079;-68
2022/11/17 03:44:41;;;;;;;3.50;1.30;;;;;;;19.08;54.65;98320.97;5044507;28;20029;-69
2022/11/17 03:47:08;;;;;;;5.40;1.20;;;;;;;19.29;54.03;98322.75;5075426;28;20036;-68
2022/11/17 03:49:49;;;;;;;5.43;1.30;;;;;;;19.41;53.68;98316.41;5042227;28;20033;-68
2022/11/17 03:52:15;;;;;;;4.17;1.53;;;;;;;18.45;56.16;98313.81;5053919;28;20029;-69
2022/11/17 03:54:40;;;;;;;3.10;1.20;;;;;;;19.11;54.16;98310.13;5041474;28;20437;-68
2022/11/17 03:57:23;;;;;;;4.10;1.00;;;;;;;19.13;54.45;98308.16;5041752;28;20029;-68
2022/11/17 04:00:10;;;;;;;3.53;1.00;;;;;;;19.45;54.26;98312.53;5043782;28;20072;-68
2022/11/17 04:02:39;;;;;;;5.23;1.00;;;;;;;19.54;53.54;98307.41;5042797;28;20453;-69
2022/11/17 04:05:04;;;;;;;3.30;1.10;;;;;;;18.95;57.24;98309.75;5044067;28;20039;-69
2022/11/17 04:07:41;;;;;;;7.67;1.20;;;;;;;18.75;56.87;98312.25;5043555;28;20021;-69
2022/11/17 04:10:10;;;;;;;9.87;1.37;;;;;;;19.51;54.28;98305.84;5042306;28;20483;-69
2022/11/17 04:18:04;;;;;;;4.17;1.00;;;;;;;19.20;55.63;98291.78;5042650;28;20083;-70
2022/11/17 04:20:34;;;;;;;3.83;1.17;;;;;;;19.94;53.74;98306.56;5042730;28;20060;-70
2022/11/17 04:23:12;;;;;;;3.47;1.20;;;;;;;19.71;54.59;98301.44;5042437;28;20025;-70
2022/11/17 04:28:35;;;;;;;4.90;1.10;;;;;;;18.76;58.15;98279.50;5042684;28;20156;-71
2022/11/17 04:31:09;;;;;;;2.10;0.60;;;;;;;18.21;61.15;98289.41;5045921;28;20116;-71
2022/11/17 04:33:36;;;;;;;4.50;0.77;;;;;;;18.46;59.71;98278.50;5044645;28;20036;-71
2022/11/17 04:36:03;;;;;;;1.60;0.70;;;;;;;18.69;59.58;98267.78;5047103;28;20398;-70
2022/11/17 04:38:28;;;;;;;1.40;0.90;;;;;;;18.20;62.24;98277.16;5045067;28;20040;-70
2022/11/17 04:43:51;;;;;;;2.27;0.63;;;;;;;18.21;61.56;98273.53;5046814;28;20068;-71
2022/11/17 04:46:18;;;;;;;0.00;0.00;;;;;;;19.23;57.35;98275.63;5061041;28;20478;-70
2022/11/17 04:48:43;;;;;;;0.00;0.00;;;;;;;19.10;57.18;98268.72;5044884;28;20040;-69
2022/11/17 04:51:09;;;;;;;0.00;0.00;;;;;;;18.19;61.51;98264.88;5046262;28;20029;-69
2022/11/17 04:53:35;;;;;;;0.00;0.00;;;;;;;18.32;60.13;98278.78;5044213;28;20461;-69
2022/11/17 04:56:02;;;;;;;0.00;0.00;;;;;;;19.49;55.62;98265.38;5044750;28;20052;-69
2022/11/17 04:58:27;;;;;;;0.00;0.00;;;;;;;18.65;59.75;98269.00;5077827;28;20619;-69
2022/11/17 05:00:53;;;;;;;0.00;0.00;;;;;;;18.21;63.03;98279.66;5076248;28;20079;-69
2022/11/17 05:03:19;;;;;;;0.00;0.00;;;;;;;18.66;60.94;98273.31;5074685;28;20045;-69
2022/11/17 05:05:46;;;;;;;0.00;0.00;;;;;;;18.99;57.80;98272.28;5045388;28;20032;-69
2022/11/17 05:08:11;;;;;;;0.00;0.00;;;;;;;19.03;57.82;98279.97;5044114;28;20218;-69
2022/11/17 05:13:21;;;;;;;0.00;0.00;;;;;;;19.11;57.76;98270.41;5045370;28;20126;-70
2022/11/17 05:18:40;;;;;;;0.00;0.00;;;;;;;19.29;56.87;98264.50;5043818;28;20043;-69
2022/11/17 05:21:07;;;;;;;0.00;0.00;;;;;;;19.32;56.10;98274.81;5044471;28;20025;-69
2022/11/17 05:26:17;;;;;;;0.00;0.00;;;;;;;19.08;57.58;98283.06;5049442;28;20124;-70
2022/11/17 05:28:43;;;;;;;0.00;0.00;;;;;;;19.30;57.29;98280.25;5049351;28;20116;-69
2022/11/17 05:31:08;;;;;;;0.00;0.00;;;;;;;19.72;54.38;98276.63;5063261;28;20029;-69
2022/11/17 05:33:34;;;;;;;0.00;0.00;;;;;;;19.18;56.68;98273.38;5051084;28;20474;-69
2022/11/17 05:35:59;;;;;;;0.00;0.00;;;;;;;18.99;59.31;98280.22;5047484;28;20021;-70
2022/11/17 05:38:25;;;;;;;0.00;0.00;;;;;;;18.63;59.82;98265.66;5047621;28;20537;-70
2022/11/17 05:40:50;;;;;;;0.00;0.00;;;;;;;18.72;59.84;98262.22;5049894;28;20501;-70
2022/11/17 05:43:15;;;;;;;0.00;0.00;;;;;;;18.71;58.04;98265.84;5049038;28;20426;-69
2022/11/17 05:45:41;;;;;;;0.00;0.00;;;;;;;18.44;60.18;98277.75;5048512;28;20033;-69
2022/11/17 05:48:06;;;;;;;0.00;0.00;;;;;;;19.60;56.61;98275.88;5045432;28;20072;-69
2022/11/17 05:50:32;;;;;;;0.00;0.00;;;;;;;20.00;54.50;98279.47;5045830;28;20033;-69
2022/11/17 05:52:57;;;;;;;0.00;0.00;;;;;;;19.25;56.48;98276.34;5066067;28;20063;-69
2022/11/17 05:55:23;;;;;;;0.00;0.00;;;;;;;19.45;56.77;98275.44;5048684;28;20064;-69
2022/11/17 05:57:49;;;;;;;0.00;0.00;;;;;;;19.85;54.46;98270.25;5049950;28;20029;-69
2022/11/17 06:00:15;;;;;;;0.00;0.00;;;;;;;19.94;54.19;98275.56;5049540;28;20529;-68
2022/11/17 06:02:54;;;;;;;0.00;0.00;;;;;;;19.41;54.81;98276.69;5049539;28;20068;-69
2022/11/17 06:05:22;;;;;;;0.00;0.00;;;;;;;19.58;55.20;98274.38;5049391;28;20065;-68
2022/11/17 06:07:49;;;;;;;0.00;0.00;;;;;;;20.54;52.42;98276.41;5048457;28;20481;-69
2022/11/17 06:10:14;;;;;;;0.00;0.00;;;;;;;19.89;54.69;98282.25;5046276;28;20048;-69
2022/11/17 06:12:39;;;;;;;0.00;0.00;;;;;;;18.92;55.66;98283.56;5047875;28;20467;-69
2022/11/17 06:15:05;;;;;;;0.00;0.00;;;;;;;19.80;55.06;98283.94;5048942;28;20098;-69
2022/11/17 06:17:41;;;;;;;0.00;0.00;;;;;;;19.39;55.27;98270.66;5047395;28;20021;-69
2022/11/17 06:20:34;;;;;;;0.00;0.00;;;;;;;18.83;58.65;98290.41;5047521;28;20040;-68
2022/11/17 06:23:03;;;;;;;0.13;0.13;;;;;;;18.54;60.23;98285.75;5041176;28;20437;-69
2022/11/17 06:25:29;;;;;;;0.00;0.00;;;;;;;19.05;56.62;98278.88;5045890;28;20555;-69
2022/11/17 06:27:57;;;;;;;0.00;0.00;;;;;;;19.27;56.14;98277.03;5042662;28;20025;-69
2022/11/17 06:30:22;;;;;;;0.00;0.00;;;;;;;19.15;55.99;98290.34;5042551;28;20021;-69
2022/11/17 06:32:49;;;;;;;0.00;0.00;;;;;;;19.69;54.03;98279.53;5044641;28;20025;-69
2022/11/17 06:35:15;;;;;;;0.00;0.00;;;;;;;19.60;54.31;98288.28;5058451;28;20031;-69
2022/11/17 06:37:41;;;;;;;0.00;0.00;;;;;;;18.93;56.50;98290.50;5044685;28;20433;-69
2022/11/17 06:40:08;;;;;;;0.07;0.07;;;;;;;19.14;57.02;98285.19;5046501;28;20406;-68
2022/11/17 06:45:18;;;;;;;0.00;0.00;;;;;;;18.56;57.54;98293.56;5039683;28;20114;-69
2022/11/17 06:47:43;;;;;;;0.00;0.00;;;;;;;18.64;57.75;98296.41;5040822;28;20033;-69
2022/11/17 06:50:09;;;;;;;0.00;0.00;;;;;;;18.28;58.42;98296.69;5057937;28;20033;-69
2022/11/17 06:52:34;;;;;;;0.00;0.00;;;;;;;18.44;58.14;98293.63;5071857;28;20013;-69
2022/11/17 06:55:00;;;;;;;0.00;0.00;;;;;;;18.88;56.59;98284.78;5044317;28;20394;-67
2022/11/17 06:57:25;;;;;;;0.00;0.00;;;;;;;17.79;58.28;98308.56;5044944;28;20025;-67
2022/11/17 06:59:51;;;;;;;0.00;0.00;;;;;;;18.54;56.55;98303.44;5045327;28;20053;-66
2022/11/17 07:02:17;;;;;;;0.30;0.30;;;;;;;19.32;54.12;98298.66;5045562;28;20021;-67
2022/11/17 07:04:42;;;;;;;0.00;0.00;;;;;;;18.51;56.77;98307.19;5041355;28;20086;-67
2022/11/17 07:07:07;;;;;;;0.00;0.00;;;;;;;18.29;58.05;98308.13;5040768;28;20502;-68
2022/11/17 07:09:33;;;;;;;0.00;0.00;;;;;;;17.97;58.58;98309.78;5038558;28;20578;-69
2022/11/17 07:11:58;;;;;;;0.00;0.00;;;;;;;18.18;57.69;98316.09;5044513;28;20035;-68
2022/11/17 07:14:23;;;;;;;0.00;0.00;;;;;;;18.04;59.18;98310.13;5061590;28;20025;-69
2022/11/17 07:16:49;;;;;;;0.00;0.00;;;;;;;17.85;58.85;98317.84;5041841;28;20528;-68
2022/11/17 07:19:14;;;;;;;0.00;0.00;;;;;;;17.71;60.93;98318.91;5045367;28;20028;-68
2022/11/17 07:21:39;;;;;;;0.00;0.00;;;;;;;18.04;58.64;98325.97;5044568;28;20028;-69
2022/11/17 07:24:05;;;;;;;0.00;0.00;;;;;;;18.04;58.49;98325.97;5042958;28;20513;-68
2022/11/17 07:26:30;;;;;;;0.00;0.00;;;;;;;17.32;61.06;98334.28;5042982;28;20487;-68
2022/11/17 07:28:56;;;;;;;0.00;0.00;;;;;;;17.61;58.90;98334.66;5044784;28;20470;-68
2022/11/17 07:31:21;;;;;;;0.73;0.73;;;;;;;17.39;60.64;98338.13;5046814;28;20367;-68
2022/11/17 07:33:46;;;;;;;0.17;0.17;;;;;;;17.25;63.69;98333.94;5078409;28;20163;-68
2022/11/17 07:36:15;;;;;;;0.00;0.00;;;;;;;17.91;60.37;98343.75;5045604;28;20028;-68
2022/11/17 07:38:41;;;;;;;0.00;0.00;;;;;;;18.25;58.44;98355.13;5042936;28;20025;-68
2022/11/17 07:41:08;;;;;;;0.00;0.00;;;;;;;17.61;60.63;98354.00;5048280;28;20044;-68
2022/11/17 07:43:35;;;;;;;0.00;0.00;;;;;;;17.60;60.75;98354.94;5050424;28;20106;-68
2022/11/17 07:46:07;;;;;;;0.00;0.00;;;;;;;17.90;58.62;98356.13;5046510;28;20107;-69
2022/11/17 07:48:33;;;;;;;;;;;;;;;18.46;57.17;98349.03;5044564;28;20219;-68
2022/11/17 07:50:59;;;;;;;0.00;0.00;;;;;;;17.68;59.17;98350.84;5077960;28;20298;-68
2022/11/17 07:53:24;;;;;;;0.00;0.00;;;;;;;18.17;58.24;98352.25;5043729;28;20060;-68
2022/11/17 07:55:50;;;;;;;0.10;0.10;;;;;;;18.28;57.32;98356.66;5045451;28;20028;-68
2022/11/17 07:58:15;;;;;;;0.50;0.50;;;;;;;18.00;58.12;98355.41;5048701;28;20052;-67
2022/11/17 08:00:41;;;;;;;5.10;1.07;;;;;;;17.84;60.69;98361.06;5059896;28;20078;-68
2022/11/17 08:03:07;;;;;;;0.00;0.00;;;;;;;17.62;61.97;98362.75;5044935;28;20029;-68
2022/11/17 08:05:38;;;;;;;0.00;0.00;;;;;;;17.37;63.25;98361.19;5036752;28;20063;-68
2022/11/17 08:08:06;;;;;;;0.00;0.00;;;;;;;17.18;62.44;98364.41;5051433;28;20028;-69
2022/11/17 08:10:33;;;;;;;4.87;1.03;;;;;;;16.88;64.05;98357.81;5049661;28;20025;-68
2022/11/17 08:13:02;;;;;;;0.20;0.20;;;;;;;17.40;62.37;98364.41;5044196;28;20032;-68
2022/11/17 08:15:28;;;;;;;7.67;3.00;;;;;;;17.38;61.80;98365.47;5033471;28;20064;-68
2022/11/17 08:17:55;;;;;;;0.00;0.00;;;;;;;16.99;62.92;98365.78;5054892;28;20045;-68
2022/11/17 08:20:21;;;;;;;0.00;0.00;;;;;;;17.34;61.32;98359.63;5034500;28;20065;-68
2022/11/17 08:22:51;;;;;;;0.00;0.00;;;;;;;17.13;63.02;98373.50;5050191;28;20032;-67
2022/11/17 08:25:21;;;;;;;0.10;0.10;;;;;;;17.30;63.54;98377.50;5050446;28;20025;-68
2022/11/17 08:27:50;;;;;;;0.00;0.00;;;;;;;17.16;62.08;98379.50;5049935;28;20025;-68
2022/11/17 08:30:19;;;;;;;0.00;0.00;;;;;;;16.92;64.53;98380.41;5063259;28;20032;-68
2022/11/17 08:32:51;;;;;;;0.00;0.00;;;;;;;16.95;66.35;98383.66;5066623;28;20024;-68
2022/11/17 08:35:18;;;;;;;0.00;0.00;;;;;;;16.87;65.99;98387.78;5049890;28;20027;-67
2022/11/17 08:37:43;;;;;;;0.00;0.00;;;;;;;17.12;63.15;98382.38;5040375;28;20072;-68
2022/11/17 08:40:10;;;;;;;0.53;0.53;;;;;;;17.27;62.63;98392.75;5036047;28;20112;-67
2022/11/17 08:42:35;;;;;;;0.20;0.20;;;;;;;17.21;61.93;98398.47;5047708;28;20060;-68
2022/11/17 08:45:00;;;;;;;0.13;0.13;;;;;;;16.64;64.83;98406.19;5048082;28;20454;-68
2022/11/17 08:47:26;;;;;;;0.00;0.00;;;;;;;16.34;66.27;98402.19;5057283;28;20032;-68
2022/11/17 08:49:51;;;;;;;0.00;0.00;;;;;;;16.23;66.73;98399.50;5046199;28;20028;-68
2022/11/17 08:52:18;;;;;;;0.93;0.93;;;;;;;16.46;67.27;98405.72;5045362;28;20013;-68
2022/11/17 08:54:44;;;;;;;0.00;0.00;;;;;;;16.44;65.89;98416.38;5044090;28;20123;-68
2022/11/17 08:57:10;;;;;;;0.00;0.00;;;;;;;16.81;64.50;98420.75;5065290;28;20106;-68
2022/11/17 08:59:35;;;;;;;0.00;0.00;;;;;;;17.39;61.83;98418.19;5044013;28;20135;-68
2022/11/17 09:02:00;;;;;;;0.00;0.00;;;;;;;16.26;66.30;98425.63;5044732;28;20039;-68
2022/11/17 09:04:26;;;;;;;0.00;0.00;;;;;;;16.72;66.06;98426.69;5050086;28;20060;-68
2022/11/17 09:06:51;;;;;;;0.00;0.00;;;;;;;16.67;65.82;98434.94;5048141;28;20032;-68
2022/11/17 09:09:17;;;;;;;0.83;0.43;;;;;;;16.84;65.41;98417.03;5047015;28;20496;-68
2022/11/17 09:11:42;;;;;;;0.00;0.00;;;;;;;16.39;66.59;98430.84;5035393;28;20028;-69
2022/11/17 09:14:08;;;;;;;0.00;0.00;;;;;;;16.60;63.74;98439.81;5048872;28;20406;-69
2022/11/17 09:16:34;;;;;;;0.00;0.00;;;;;;;17.60;61.60;98443.91;5049327;28;20020;-68
2022/11/17 09:19:01;;;;;;;0.00;0.00;;;;;;;16.29;65.71;98441.19;5060186;28;20027;-69
2022/11/17 09:21:27;;;;;;;0.00;0.00;;;;;;;17.28;62.04;98444.56;5076566;28;20108;-68
2022/11/17 09:23:53;;;;;;;0.00;0.00;;;;;;;17.21;62.28;98438.88;5050790;28;20111;-68
2022/11/17 09:26:19;;;;;;;0.00;0.00;;;;;;;17.27;62.78;98450.81;5048979;28;20029;-68
2022/11/17 09:28:44;;;;;;;0.00;0.00;;;;;;;16.86;63.88;98449.44;5053440;28;20017;-69
2022/11/17 09:31:13;;;;;;;0.00;0.00;;;;;;;16.97;63.92;98462.69;5046647;28;20482;-69
2022/11/17 09:33:39;;;;;;;0.00;0.00;;;;;;;17.31;62.86;98454.91;5078288;28;20064;-69
2022/11/17 09:36:08;;;;;;;0.00;0.00;;;;;;;17.57;61.12;98445.00;5053637;28;20071;-69
2022/11/17 09:38:35;;;;;;;0.00;0.00;;;;;;;16.43;65.51;98459.53;5043754;28;20609;-69
2022/11/17 09:41:11;;;;;;;0.00;0.00;;;;;;;16.82;63.21;98469.09;5041903;28;20017;-68
2022/11/17 09:43:38;;;;;;;0.00;0.00;;;;;;;17.09;61.27;98461.78;5045600;28;20032;-69
2022/11/17 09:46:20;;;;;;;0.00;0.00;;;;;;;16.66;64.79;98470.19;5045154;28;20025;-69
2022/11/17 09:48:57;;;;;;;0.00;0.00;;;;;;;17.73;61.11;98476.31;5044020;28;20036;-69
2022/11/17 09:51:25;;;;;;;0.10;0.10;;;;;;;16.66;63.48;98480.72;5066037;28;20440;-69
2022/11/17 09:53:58;;;;;;;0.00;0.00;;;;;;;16.59;64.63;98495.31;5046832;28;20025;-69
2022/11/17 09:56:26;;;;;;;0.00;0.00;;;;;;;17.55;62.72;98496.25;5044053;28;20482;-69
2022/11/17 09:59:00;;;;;;;0.00;0.00;;;;;;;16.76;64.89;98500.22;5042217;28;20024;-69
2022/11/17 10:01:27;;;;;;;0.00;0.00;;;;;;;16.51;64.35;98502.94;5059197;28;20095;-69
2022/11/17 10:03:55;;;;;;;0.00;0.00;;;;;;;17.11;63.09;98507.38;5041293;28;20025;-69
2022/11/17 10:06:24;;;;;;;0.00;0.00;;;;;;;17.15;62.17;98507.16;5050395;28;20024;-69
2022/11/17 10:09:03;;;;;;;0.00;0.00;;;;;;;17.69;59.37;98503.94;5056534;28;20482;-69
2022/11/17 10:11:31;;;;;;;0.00;0.00;;;;;;;17.01;62.36;98511.66;5037764;28;20478;-69
2022/11/17 10:14:14;;;;;;;2.00;1.43;;;;;;;16.68;63.66;98515.75;5044490;28;20030;-69
2022/11/17 10:16:50;;;;;;;0.00;0.00;;;;;;;16.90;63.05;98519.53;5038698;28;20071;-69
2022/11/17 10:19:19;;;;;;;0.00;0.00;;;;;;;16.76;64.91;98518.69;5037175;28;20388;-69
2022/11/17 10:21:49;;;;;;;0.00;0.00;;;;;;;17.32;61.37;98524.38;5066506;28;20029;-70
2022/11/17 10:24:33;;;;;;;0.47;0.43;;;;;;;16.95;62.47;98523.50;5047013;28;20029;-69
2022/11/17 10:27:01;;;;;;;0.20;0.20;;;;;;;16.86;62.02;98529.41;5056037;28;20033;-69
2022/11/17 10:29:26;;;;;;;0.00;0.00;;;;;;;17.43;61.38;98525.28;5042939;28;20036;-70
2022/11/17 10:31:52;;;;;;;0.00;0.00;;;;;;;16.89;64.31;98536.31;5045355;28;20025;-70
2022/11/17 10:34:35;;;;;;;0.00;0.00;;;;;;;17.12;60.79;98540.72;5044870;28;20040;-71
2022/11/17 10:37:05;;;;;;;;;;;;;;;16.94;65.06;98547.38;5070955;28;20029;-71
2022/11/17 10:39:36;;;;;;;0.00;0.00;;;;;;;16.93;64.42;98549.16;5074399;28;19939;-71
2022/11/17 10:42:20;;;;;;;0.00;0.00;;;;;;;18.16;57.42;98545.34;5046124;28;20048;-70
2022/11/17 10:44:50;;;;;;;0.00;0.00;;;;;;;18.10;57.73;98542.22;5049008;28;20031;-71
2022/11/17 10:47:46;;;;;;;0.00;0.00;;;;;;;17.86;58.86;98549.38;5048329;28;20438;-70
2022/11/17 10:50:22;;;;;;;0.00;0.00;;;;;;;17.62;60.00;98542.34;5038187;28;20042;-70
2022/11/17 10:52:50;;;;;;;0.13;0.13;;;;;;;17.05;60.15;98539.50;5046175;28;20544;-70
2022/11/17 10:55:19;;;;;;;7.23;1.60;;;;;;;17.75;60.05;98553.69;5045144;28;20033;-70
2022/11/17 10:57:53;;;;;;;0.00;0.00;;;;;;;17.16;59.90;98546.63;5061342;28;20029;-69
2022/11/17 11:00:30;;;;;;;0.00;0.00;;;;;;;17.16;59.24;98565.13;5040568;28;20059;-69
2022/11/17 11:03:18;;;;;;;0.63;0.63;;;;;;;16.35;60.13;98563.81;5063303;28;20052;-69
2022/11/17 11:06:19;;;;;;;0.00;0.00;;;;;;;17.18;59.73;98554.44;5044957;28;20032;-67
2022/11/17 11:08:55;;;;;;;0.00;0.00;;;;;;;16.75;60.06;98553.94;5013455;28;20123;-70
2022/11/17 11:11:49;;;;;;;0.00;0.00;;;;;;;16.83;58.72;98563.09;5046835;28;20029;-69
2022/11/17 11:14:35;;;;;;;0.00;0.00;;;;;;;18.28;55.14;98562.91;5048672;28;20383;-67
2022/11/17 11:17:09;;;;;;;0.00;0.00;;;;;;;17.56;56.94;98575.34;5046601;28;20033;-69
2022/11/17 11:19:35;;;;;;;0.00;0.00;;;;;;;17.35;56.92;98580.44;5044492;28;20029;-69
2022/11/17 11:22:34;;;;;;;0.00;0.00;;;;;;;17.12;59.32;98588.25;5045323;28;20036;-69
2022/11/17 11:25:28;;;;;;;0.10;0.10;;;;;;;16.16;64.98;98588.81;5048875;28;22108;-69
2022/11/17 11:28:28;;;;;;;0.00;0.00;;;;;;;17.18;61.75;98581.66;5046339;28;20043;-70
2022/11/17 11:31:05;;;;;;;0.00;0.00;;;;;;;17.41;60.83;98582.63;5039577;28;20064;-72
2022/11/17 11:33:40;;;;;;;0.00;0.00;;;;;;;17.93;58.29;98587.63;5041470;28;20029;-70
2022/11/17 11:36:36;;;;;;;0.00;0.00;;;;;;;18.60;56.19;98585.97;5041538;28;20052;-71
2022/11/17 11:39:34;;;;;;;0.00;0.00;;;;;;;18.20;56.37;98587.28;5064423;28;20128;-71
2022/11/17 11:42:06;;;;;;;0.00;0.00;;;;;;;19.22;53.01;98591.69;5050439;28;20036;-71
2022/11/17 11:44:44;;;;;;;0.00;0.00;;;;;;;18.66;54.27;98585.50;5046085;28;21188;-70
2022/11/17 11:47:19;;;;;;;0.00;0.00;;;;;;;17.73;57.00;98589.94;5048676;28;20296;-70
2022/11/17 11:49:52;;;;;;;0.00;0.00;;;;;;;17.16;59.67;98573.03;5073472;28;20028;-71
2022/11/17 11:52:24;;;;;;;0.20;0.20;;;;;;;17.70;58.44;98581.41;5049301;28;20125;-71
2022/11/17 11:54:53;;;;;;;0.00;0.00;;;;;;;16.90;60.69;98582.84;5042983;28;20031;-71
2022/11/17 11:57:26;;;;;;;0.00;0.00;;;;;;;17.80;58.49;98583.25;5051851;28;20113;-67
2022/11/17 11:59:59;;;;;;;0.00;0.00;;;;;;;16.73;62.24;98592.78;5042685;28;20079;-69
2022/11/17 12:02:35;;;;;;;0.00;0.00;;;;;;;16.69;62.13;98575.50;5056607;28;20028;-69
2022/11/17 12:05:16;;;;;;;0.00;0.00;;;;;;;16.44;64.51;98600.94;5059722;28;20115;-70
2022/11/17 12:08:18;;;;;;;0.00;0.00;;;;;;;16.23;65.46;98605.06;5053257;28;20133;-70
2022/11/17 12:10:56;;;;;;;0.00;0.00;;;;;;;16.56;66.09;98593.94;5027933;28;20044;-69
2022/11/17 12:13:23;;;;;;;0.00;0.00;;;;;;;17.04;62.97;98598.50;5048487;28;20128;-70
2022/11/17 12:15:49;;;;;;;0.10;0.10;;;;;;;16.83;63.28;98597.38;5057483;28;20501;-70
2022/11/17 12:18:17;;;;;;;0.00;0.00;;;;;;;16.71;64.26;98610.50;5050874;28;20033;-70
2022/11/17 12:21:01;;;;;;;0.00;0.00;;;;;;;16.92;61.97;98609.94;5049306;28;20105;-70